sensor_id;sensor_type;location;lat;lon;timestamp;P1;durP1;ratioP1;P2;durP2;ratioP2
23384;SDS011;11865;45.394;10.978;2023-12-20T00:01:11;61.25;;;26.88;;
23384;SDS011;11865;45.394;10.978;2023-12-20T00:03:39;62.20;;;27.98;;
23384;SDS011;11865;45.394;10.978;2023-12-20T00:06:09;51.03;;;26.88;;
23384;SDS011;11865;45.394;10.978;2023-12-20T00:08:37;57.47;;;28.75;;
23384;SDS011;11865;45.394;10.978;2023-12-20T00:11:04;45.42;;;24.40;;
23384;SDS011;11865;45.394;10.978;2023-12-20T00:13:32;44.22;;;24.25;;
23384;SDS011;11865;45.394;10.978;2023-12-20T00:16:00;50.03;;;25.30;;
23384;SDS011;11865;45.394;10.978;2023-12-20T00:18:27;53.08;;;25.27;;
23384;SDS011;11865;45.394;10.978;2023-12-20T00:20:55;46.58;;;26.05;;
23384;SDS011;11865;45.394;10.978;2023-12-20T00:23:23;49.63;;;23.70;;
23384;SDS011;11865;45.394;10.978;2023-12-20T00:25:50;44.72;;;23.27;;
23384;SDS011;11865;45.394;10.978;2023-12-20T00:28:18;45.90;;;23.45;;
23384;SDS011;11865;45.394;10.978;2023-12-20T00:30:45;37.33;;;22.65;;
23384;SDS011;11865;45.394;10.978;2023-12-20T00:33:13;40.60;;;22.10;;
23384;SDS011;11865;45.394;10.978;2023-12-20T00:35:41;38.80;;;22.75;;
23384;SDS011;11865;45.394;10.978;2023-12-20T00:38:08;45.28;;;22.92;;
23384;SDS011;11865;45.394;10.978;2023-12-20T00:40:37;38.28;;;21.27;;
23384;SDS011;11865;45.394;10.978;2023-12-20T00:43:04;45.10;;;24.15;;
23384;SDS011;11865;45.394;10.978;2023-12-20T00:45:32;43.80;;;22.58;;
23384;SDS011;11865;45.394;10.978;2023-12-20T00:47:59;43.20;;;23.60;;
23384;SDS011;11865;45.394;10.978;2023-12-20T00:50:27;46.42;;;24.35;;
23384;SDS011;11865;45.394;10.978;2023-12-20T00:52:56;48.80;;;23.83;;
23384;SDS011;11865;45.394;10.978;2023-12-20T00:55:24;40.83;;;23.88;;
23384;SDS011;11865;45.394;10.978;2023-12-20T00:57:51;36.90;;;22.10;;
23384;SDS011;11865;45.394;10.978;2023-12-20T01:00:20;41.92;;;23.10;;
23384;SDS011;11865;45.394;10.978;2023-12-20T01:02:48;44.70;;;23.48;;
23384;SDS011;11865;45.394;10.978;2023-12-20T01:05:18;42.72;;;25.02;;
23384;SDS011;11865;45.394;10.978;2023-12-20T01:07:46;47.15;;;24.55;;
23384;SDS011;11865;45.394;10.978;2023-12-20T01:10:14;52.47;;;26.05;;
23384;SDS011;11865;45.394;10.978;2023-12-20T01:12:42;47.85;;;25.58;;
23384;SDS011;11865;45.394;10.978;2023-12-20T01:15:10;53.58;;;26.92;;
23384;SDS011;11865;45.394;10.978;2023-12-20T01:17:38;50.33;;;25.55;;
23384;SDS011;11865;45.394;10.978;2023-12-20T01:20:06;50.30;;;26.38;;
23384;SDS011;11865;45.394;10.978;2023-12-20T01:22:34;54.97;;;26.00;;
23384;SDS011;11865;45.394;10.978;2023-12-20T01:25:02;44.38;;;25.55;;
23384;SDS011;11865;45.394;10.978;2023-12-20T01:27:30;48.15;;;25.23;;
23384;SDS011;11865;45.394;10.978;2023-12-20T01:29:58;47.78;;;25.30;;
23384;SDS011;11865;45.394;10.978;2023-12-20T01:32:25;45.20;;;24.27;;
23384;SDS011;11865;45.394;10.978;2023-12-20T01:34:53;40.58;;;23.48;;
23384;SDS011;11865;45.394;10.978;2023-12-20T01:37:24;48.75;;;25.52;;
23384;SDS011;11865;45.394;10.978;2023-12-20T01:39:52;43.55;;;24.73;;
23384;SDS011;11865;45.394;10.978;2023-12-20T01:42:20;43.20;;;23.80;;
23384;SDS011;11865;45.394;10.978;2023-12-20T01:44:47;46.47;;;23.67;;
23384;SDS011;11865;45.394;10.978;2023-12-20T01:47:15;44.40;;;24.55;;
23384;SDS011;11865;45.394;10.978;2023-12-20T01:49:43;51.08;;;23.98;;
23384;SDS011;11865;45.394;10.978;2023-12-20T01:52:11;40.72;;;22.42;;
23384;SDS011;11865;45.394;10.978;2023-12-20T01:54:39;46.92;;;23.83;;
23384;SDS011;11865;45.394;10.978;2023-12-20T01:57:09;40.20;;;23.05;;
23384;SDS011;11865;45.394;10.978;2023-12-20T01:59:38;45.22;;;24.92;;
23384;SDS011;11865;45.394;10.978;2023-12-20T02:02:07;45.33;;;24.30;;
23384;SDS011;11865;45.394;10.978;2023-12-20T02:04:35;43.42;;;23.40;;
23384;SDS011;11865;45.394;10.978;2023-12-20T02:07:03;41.42;;;23.85;;
23384;SDS011;11865;45.394;10.978;2023-12-20T02:09:31;39.97;;;22.80;;
23384;SDS011;11865;45.394;10.978;2023-12-20T02:11:59;47.53;;;24.05;;
23384;SDS011;11865;45.394;10.978;2023-12-20T02:14:27;45.00;;;24.15;;
23384;SDS011;11865;45.394;10.978;2023-12-20T02:16:54;43.53;;;23.25;;
23384;SDS011;11865;45.394;10.978;2023-12-20T02:19:22;44.10;;;24.63;;
23384;SDS011;11865;45.394;10.978;2023-12-20T02:21:49;40.85;;;24.10;;
23384;SDS011;11865;45.394;10.978;2023-12-20T02:24:17;41.17;;;22.60;;
23384;SDS011;11865;45.394;10.978;2023-12-20T02:26:45;44.17;;;22.55;;
23384;SDS011;11865;45.394;10.978;2023-12-20T02:29:13;38.45;;;21.75;;
23384;SDS011;11865;45.394;10.978;2023-12-20T02:31:40;42.58;;;22.48;;
23384;SDS011;11865;45.394;10.978;2023-12-20T02:34:08;41.63;;;21.63;;
23384;SDS011;11865;45.394;10.978;2023-12-20T02:36:36;43.80;;;22.02;;
23384;SDS011;11865;45.394;10.978;2023-12-20T02:39:03;39.88;;;22.05;;
23384;SDS011;11865;45.394;10.978;2023-12-20T02:41:31;43.30;;;21.83;;
23384;SDS011;11865;45.394;10.978;2023-12-20T02:43:58;48.33;;;22.20;;
23384;SDS011;11865;45.394;10.978;2023-12-20T02:46:26;39.70;;;20.77;;
23384;SDS011;11865;45.394;10.978;2023-12-20T02:48:53;40.88;;;21.67;;
23384;SDS011;11865;45.394;10.978;2023-12-20T02:51:21;39.85;;;20.77;;
23384;SDS011;11865;45.394;10.978;2023-12-20T02:53:48;41.97;;;20.83;;
23384;SDS011;11865;45.394;10.978;2023-12-20T02:56:16;33.40;;;20.60;;
23384;SDS011;11865;45.394;10.978;2023-12-20T02:58:43;36.03;;;20.15;;
23384;SDS011;11865;45.394;10.978;2023-12-20T03:01:11;36.17;;;20.33;;
23384;SDS011;11865;45.394;10.978;2023-12-20T03:03:38;34.75;;;18.63;;
23384;SDS011;11865;45.394;10.978;2023-12-20T03:06:06;37.67;;;20.42;;
23384;SDS011;11865;45.394;10.978;2023-12-20T03:08:34;39.40;;;18.67;;
23384;SDS011;11865;45.394;10.978;2023-12-20T03:11:01;34.20;;;19.35;;
23384;SDS011;11865;45.394;10.978;2023-12-20T03:13:29;39.53;;;19.63;;
23384;SDS011;11865;45.394;10.978;2023-12-20T03:15:56;40.28;;;21.23;;
23384;SDS011;11865;45.394;10.978;2023-12-20T03:18:24;40.72;;;19.92;;
23384;SDS011;11865;45.394;10.978;2023-12-20T03:20:52;39.20;;;20.42;;
23384;SDS011;11865;45.394;10.978;2023-12-20T03:23:19;42.75;;;20.10;;
23384;SDS011;11865;45.394;10.978;2023-12-20T03:25:47;38.80;;;19.23;;
23384;SDS011;11865;45.394;10.978;2023-12-20T03:28:14;36.05;;;18.55;;
23384;SDS011;11865;45.394;10.978;2023-12-20T03:30:43;35.40;;;19.25;;
23384;SDS011;11865;45.394;10.978;2023-12-20T03:33:10;33.35;;;19.35;;
23384;SDS011;11865;45.394;10.978;2023-12-20T03:35:38;34.13;;;17.98;;
23384;SDS011;11865;45.394;10.978;2023-12-20T03:38:05;35.30;;;18.00;;
23384;SDS011;11865;45.394;10.978;2023-12-20T03:40:33;37.03;;;18.13;;
23384;SDS011;11865;45.394;10.978;2023-12-20T03:43:01;35.97;;;18.50;;
23384;SDS011;11865;45.394;10.978;2023-12-20T03:45:28;35.67;;;17.30;;
23384;SDS011;11865;45.394;10.978;2023-12-20T03:47:56;30.77;;;17.42;;
23384;SDS011;11865;45.394;10.978;2023-12-20T03:50:23;36.85;;;18.98;;
23384;SDS011;11865;45.394;10.978;2023-12-20T03:52:51;32.33;;;17.05;;
23384;SDS011;11865;45.394;10.978;2023-12-20T03:55:19;33.30;;;17.48;;
23384;SDS011;11865;45.394;10.978;2023-12-20T03:57:47;33.22;;;17.15;;
23384;SDS011;11865;45.394;10.978;2023-12-20T04:00:15;36.10;;;16.30;;
23384;SDS011;11865;45.394;10.978;2023-12-20T04:02:42;29.33;;;16.88;;
23384;SDS011;11865;45.394;10.978;2023-12-20T04:05:10;37.53;;;17.67;;
23384;SDS011;11865;45.394;10.978;2023-12-20T04:07:38;37.55;;;18.35;;
23384;SDS011;11865;45.394;10.978;2023-12-20T04:10:06;37.97;;;18.30;;
23384;SDS011;11865;45.394;10.978;2023-12-20T04:12:35;28.60;;;16.95;;
23384;SDS011;11865;45.394;10.978;2023-12-20T04:15:02;32.00;;;16.25;;
23384;SDS011;11865;45.394;10.978;2023-12-20T04:17:36;30.80;;;17.00;;
23384;SDS011;11865;45.394;10.978;2023-12-20T04:20:04;32.83;;;17.48;;
23384;SDS011;11865;45.394;10.978;2023-12-20T04:22:32;31.75;;;17.73;;
23384;SDS011;11865;45.394;10.978;2023-12-20T04:24:59;30.77;;;15.88;;
23384;SDS011;11865;45.394;10.978;2023-12-20T04:27:27;32.67;;;18.13;;
23384;SDS011;11865;45.394;10.978;2023-12-20T04:29:55;36.45;;;17.13;;
23384;SDS011;11865;45.394;10.978;2023-12-20T04:32:22;34.88;;;18.25;;
23384;SDS011;11865;45.394;10.978;2023-12-20T04:34:50;29.77;;;17.45;;
23384;SDS011;11865;45.394;10.978;2023-12-20T04:37:18;36.42;;;17.60;;
23384;SDS011;11865;45.394;10.978;2023-12-20T04:39:45;32.70;;;17.40;;
23384;SDS011;11865;45.394;10.978;2023-12-20T04:42:13;34.03;;;17.27;;
23384;SDS011;11865;45.394;10.978;2023-12-20T04:44:40;31.63;;;17.77;;
23384;SDS011;11865;45.394;10.978;2023-12-20T04:47:08;28.77;;;17.02;;
23384;SDS011;11865;45.394;10.978;2023-12-20T04:49:35;29.73;;;16.15;;
23384;SDS011;11865;45.394;10.978;2023-12-20T04:52:03;26.50;;;15.18;;
23384;SDS011;11865;45.394;10.978;2023-12-20T04:54:31;30.02;;;16.05;;
23384;SDS011;11865;45.394;10.978;2023-12-20T04:56:58;35.08;;;16.13;;
23384;SDS011;11865;45.394;10.978;2023-12-20T04:59:26;34.17;;;16.52;;
23384;SDS011;11865;45.394;10.978;2023-12-20T05:01:53;29.98;;;15.77;;
23384;SDS011;11865;45.394;10.978;2023-12-20T05:04:21;30.50;;;14.82;;
23384;SDS011;11865;45.394;10.978;2023-12-20T05:06:49;30.25;;;15.27;;
23384;SDS011;11865;45.394;10.978;2023-12-20T05:09:17;27.23;;;14.75;;
23384;SDS011;11865;45.394;10.978;2023-12-20T05:11:44;24.45;;;13.93;;
23384;SDS011;11865;45.394;10.978;2023-12-20T05:14:12;24.98;;;14.43;;
23384;SDS011;11865;45.394;10.978;2023-12-20T05:16:39;25.08;;;14.85;;
23384;SDS011;11865;45.394;10.978;2023-12-20T05:19:07;31.95;;;16.23;;
23384;SDS011;11865;45.394;10.978;2023-12-20T05:21:34;31.70;;;15.15;;
23384;SDS011;11865;45.394;10.978;2023-12-20T05:24:03;35.33;;;15.75;;
23384;SDS011;11865;45.394;10.978;2023-12-20T05:26:30;33.42;;;15.57;;
23384;SDS011;11865;45.394;10.978;2023-12-20T05:28:58;28.45;;;15.27;;
23384;SDS011;11865;45.394;10.978;2023-12-20T05:31:25;26.73;;;13.70;;
23384;SDS011;11865;45.394;10.978;2023-12-20T05:33:53;27.88;;;14.20;;
23384;SDS011;11865;45.394;10.978;2023-12-20T05:36:21;25.85;;;13.77;;
23384;SDS011;11865;45.394;10.978;2023-12-20T05:38:48;28.55;;;14.02;;
23384;SDS011;11865;45.394;10.978;2023-12-20T05:41:16;40.33;;;14.65;;
23384;SDS011;11865;45.394;10.978;2023-12-20T05:43:43;26.92;;;12.52;;
23384;SDS011;11865;45.394;10.978;2023-12-20T05:46:11;35.15;;;13.52;;
23384;SDS011;11865;45.394;10.978;2023-12-20T05:48:39;23.73;;;12.70;;
23384;SDS011;11865;45.394;10.978;2023-12-20T05:51:07;26.70;;;11.95;;
23384;SDS011;11865;45.394;10.978;2023-12-20T05:53:36;24.35;;;12.40;;
23384;SDS011;11865;45.394;10.978;2023-12-20T05:56:04;25.10;;;13.07;;
23384;SDS011;11865;45.394;10.978;2023-12-20T05:58:33;22.73;;;13.30;;
23384;SDS011;11865;45.394;10.978;2023-12-20T06:01:03;23.25;;;12.45;;
23384;SDS011;11865;45.394;10.978;2023-12-20T06:03:31;38.92;;;13.73;;
23384;SDS011;11865;45.394;10.978;2023-12-20T06:05:59;28.55;;;13.52;;
23384;SDS011;11865;45.394;10.978;2023-12-20T06:08:42;26.13;;;13.10;;
23384;SDS011;11865;45.394;10.978;2023-12-20T06:11:11;24.23;;;13.02;;
23384;SDS011;11865;45.394;10.978;2023-12-20T06:13:39;25.35;;;13.07;;
23384;SDS011;11865;45.394;10.978;2023-12-20T06:16:07;27.55;;;12.93;;
23384;SDS011;11865;45.394;10.978;2023-12-20T06:18:34;22.35;;;12.80;;
23384;SDS011;11865;45.394;10.978;2023-12-20T06:21:04;30.30;;;13.32;;
23384;SDS011;11865;45.394;10.978;2023-12-20T06:23:31;22.60;;;12.38;;
23384;SDS011;11865;45.394;10.978;2023-12-20T06:25:59;26.40;;;13.20;;
23384;SDS011;11865;45.394;10.978;2023-12-20T06:28:27;22.70;;;12.48;;
23384;SDS011;11865;45.394;10.978;2023-12-20T06:30:54;22.83;;;12.75;;
23384;SDS011;11865;45.394;10.978;2023-12-20T06:33:24;23.92;;;12.68;;
23384;SDS011;11865;45.394;10.978;2023-12-20T06:35:51;21.45;;;12.85;;
23384;SDS011;11865;45.394;10.978;2023-12-20T06:38:19;26.70;;;13.10;;
23384;SDS011;11865;45.394;10.978;2023-12-20T06:40:47;26.48;;;12.13;;
23384;SDS011;11865;45.394;10.978;2023-12-20T06:43:15;25.80;;;12.95;;
23384;SDS011;11865;45.394;10.978;2023-12-20T06:46:02;26.98;;;13.02;;
23384;SDS011;11865;45.394;10.978;2023-12-20T06:48:30;28.77;;;13.65;;
23384;SDS011;11865;45.394;10.978;2023-12-20T06:50:59;23.38;;;13.02;;
23384;SDS011;11865;45.394;10.978;2023-12-20T06:53:29;21.23;;;12.20;;
23384;SDS011;11865;45.394;10.978;2023-12-20T06:55:56;23.05;;;13.20;;
23384;SDS011;11865;45.394;10.978;2023-12-20T06:58:24;31.88;;;13.40;;
23384;SDS011;11865;45.394;10.978;2023-12-20T07:00:51;29.52;;;13.73;;
23384;SDS011;11865;45.394;10.978;2023-12-20T07:03:19;29.70;;;13.40;;
23384;SDS011;11865;45.394;10.978;2023-12-20T07:05:47;29.55;;;13.80;;
23384;SDS011;11865;45.394;10.978;2023-12-20T07:08:14;32.53;;;14.32;;
23384;SDS011;11865;45.394;10.978;2023-12-20T07:10:42;26.13;;;12.23;;
23384;SDS011;11865;45.394;10.978;2023-12-20T07:13:10;28.55;;;13.40;;
23384;SDS011;11865;45.394;10.978;2023-12-20T07:15:37;29.27;;;14.00;;
23384;SDS011;11865;45.394;10.978;2023-12-20T07:18:05;22.27;;;12.60;;
23384;SDS011;11865;45.394;10.978;2023-12-20T07:20:33;26.48;;;13.05;;
23384;SDS011;11865;45.394;10.978;2023-12-20T07:23:00;33.35;;;12.65;;
23384;SDS011;11865;45.394;10.978;2023-12-20T07:25:28;26.95;;;12.60;;
23384;SDS011;11865;45.394;10.978;2023-12-20T07:28:00;30.25;;;13.95;;
23384;SDS011;11865;45.394;10.978;2023-12-20T07:30:28;30.02;;;13.98;;
23384;SDS011;11865;45.394;10.978;2023-12-20T07:32:55;29.77;;;14.23;;
23384;SDS011;11865;45.394;10.978;2023-12-20T07:35:24;28.95;;;12.60;;
23384;SDS011;11865;45.394;10.978;2023-12-20T07:37:52;27.08;;;12.88;;
23384;SDS011;11865;45.394;10.978;2023-12-20T07:40:20;29.15;;;12.88;;
23384;SDS011;11865;45.394;10.978;2023-12-20T07:42:48;31.23;;;12.23;;
23384;SDS011;11865;45.394;10.978;2023-12-20T07:45:16;38.88;;;13.43;;
23384;SDS011;11865;45.394;10.978;2023-12-20T07:47:44;35.28;;;14.02;;
23384;SDS011;11865;45.394;10.978;2023-12-20T07:50:12;26.55;;;12.57;;
23384;SDS011;11865;45.394;10.978;2023-12-20T07:52:40;28.58;;;12.98;;
23384;SDS011;11865;45.394;10.978;2023-12-20T07:55:08;31.15;;;12.65;;
23384;SDS011;11865;45.394;10.978;2023-12-20T07:57:35;34.42;;;14.57;;
23384;SDS011;11865;45.394;10.978;2023-12-20T08:00:03;27.45;;;12.60;;
23384;SDS011;11865;45.394;10.978;2023-12-20T08:02:32;33.67;;;12.65;;
23384;SDS011;11865;45.394;10.978;2023-12-20T08:04:59;38.13;;;14.13;;
23384;SDS011;11865;45.394;10.978;2023-12-20T08:07:27;26.40;;;12.43;;
23384;SDS011;11865;45.394;10.978;2023-12-20T08:09:55;47.67;;;14.73;;
23384;SDS011;11865;45.394;10.978;2023-12-20T08:12:24;40.83;;;12.95;;
23384;SDS011;11865;45.394;10.978;2023-12-20T08:14:54;37.42;;;12.55;;
23384;SDS011;11865;45.394;10.978;2023-12-20T08:17:22;32.72;;;13.18;;
23384;SDS011;11865;45.394;10.978;2023-12-20T08:19:50;39.83;;;13.20;;
23384;SDS011;11865;45.394;10.978;2023-12-20T08:22:18;29.08;;;14.60;;
23384;SDS011;11865;45.394;10.978;2023-12-20T08:24:46;58.50;;;19.40;;
23384;SDS011;11865;45.394;10.978;2023-12-20T08:27:13;57.88;;;17.80;;
23384;SDS011;11865;45.394;10.978;2023-12-20T08:29:43;45.35;;;17.88;;
23384;SDS011;11865;45.394;10.978;2023-12-20T08:32:11;51.17;;;18.83;;
23384;SDS011;11865;45.394;10.978;2023-12-20T08:34:39;56.33;;;20.13;;
23384;SDS011;11865;45.394;10.978;2023-12-20T08:37:07;41.05;;;19.90;;
23384;SDS011;11865;45.394;10.978;2023-12-20T08:39:35;64.15;;;21.38;;
23384;SDS011;11865;45.394;10.978;2023-12-20T08:42:02;40.33;;;19.23;;
23384;SDS011;11865;45.394;10.978;2023-12-20T08:44:30;44.70;;;19.48;;
23384;SDS011;11865;45.394;10.978;2023-12-20T08:46:58;38.45;;;18.65;;
23384;SDS011;11865;45.394;10.978;2023-12-20T08:49:25;50.50;;;19.70;;
23384;SDS011;11865;45.394;10.978;2023-12-20T08:51:55;36.78;;;18.50;;
23384;SDS011;11865;45.394;10.978;2023-12-20T08:54:22;37.38;;;19.13;;
23384;SDS011;11865;45.394;10.978;2023-12-20T08:56:50;40.90;;;19.33;;
23384;SDS011;11865;45.394;10.978;2023-12-20T08:59:18;40.20;;;18.83;;
23384;SDS011;11865;45.394;10.978;2023-12-20T09:01:46;47.53;;;20.08;;
23384;SDS011;11865;45.394;10.978;2023-12-20T09:04:15;45.58;;;21.23;;
23384;SDS011;11865;45.394;10.978;2023-12-20T09:06:42;48.13;;;20.67;;
23384;SDS011;11865;45.394;10.978;2023-12-20T09:09:11;45.97;;;19.52;;
23384;SDS011;11865;45.394;10.978;2023-12-20T09:11:40;39.33;;;20.75;;
23384;SDS011;11865;45.394;10.978;2023-12-20T09:14:09;40.53;;;21.55;;
23384;SDS011;11865;45.394;10.978;2023-12-20T09:16:36;51.40;;;22.25;;
23384;SDS011;11865;45.394;10.978;2023-12-20T09:19:04;48.63;;;23.67;;
23384;SDS011;11865;45.394;10.978;2023-12-20T09:21:32;59.05;;;22.45;;
23384;SDS011;11865;45.394;10.978;2023-12-20T09:24:00;55.90;;;24.15;;
23384;SDS011;11865;45.394;10.978;2023-12-20T09:26:28;58.80;;;24.48;;
23384;SDS011;11865;45.394;10.978;2023-12-20T09:28:55;53.53;;;24.75;;
23384;SDS011;11865;45.394;10.978;2023-12-20T09:31:23;58.08;;;24.77;;
23384;SDS011;11865;45.394;10.978;2023-12-20T09:33:51;54.78;;;24.92;;
23384;SDS011;11865;45.394;10.978;2023-12-20T09:36:19;45.78;;;23.00;;
23384;SDS011;11865;45.394;10.978;2023-12-20T09:38:46;53.28;;;25.02;;
23384;SDS011;11865;45.394;10.978;2023-12-20T09:41:14;66.32;;;26.67;;
23384;SDS011;11865;45.394;10.978;2023-12-20T09:43:41;85.97;;;31.02;;
23384;SDS011;11865;45.394;10.978;2023-12-20T09:46:09;89.43;;;31.85;;
23384;SDS011;11865;45.394;10.978;2023-12-20T09:48:41;75.20;;;26.88;;
23384;SDS011;11865;45.394;10.978;2023-12-20T09:51:11;70.50;;;25.90;;
23384;SDS011;11865;45.394;10.978;2023-12-20T09:53:39;53.50;;;24.80;;
23384;SDS011;11865;45.394;10.978;2023-12-20T09:56:08;51.05;;;24.27;;
23384;SDS011;11865;45.394;10.978;2023-12-20T09:58:36;40.85;;;21.85;;
23384;SDS011;11865;45.394;10.978;2023-12-20T10:01:05;46.88;;;23.20;;
23384;SDS011;11865;45.394;10.978;2023-12-20T10:03:35;51.38;;;24.73;;
23384;SDS011;11865;45.394;10.978;2023-12-20T10:06:07;52.83;;;24.75;;
23384;SDS011;11865;45.394;10.978;2023-12-20T10:08:36;52.80;;;24.15;;
23384;SDS011;11865;45.394;10.978;2023-12-20T10:11:04;48.15;;;26.73;;
23384;SDS011;11865;45.394;10.978;2023-12-20T10:13:32;62.58;;;28.20;;
23384;SDS011;11865;45.394;10.978;2023-12-20T10:16:01;58.42;;;28.58;;
23384;SDS011;11865;45.394;10.978;2023-12-20T10:18:29;60.50;;;26.10;;
23384;SDS011;11865;45.394;10.978;2023-12-20T10:21:05;52.03;;;27.83;;
23384;SDS011;11865;45.394;10.978;2023-12-20T10:26:06;49.80;;;27.08;;
23384;SDS011;11865;45.394;10.978;2023-12-20T10:28:34;52.55;;;28.13;;
23384;SDS011;11865;45.394;10.978;2023-12-20T10:31:02;54.88;;;27.20;;
23384;SDS011;11865;45.394;10.978;2023-12-20T10:33:30;57.17;;;29.75;;
23384;SDS011;11865;45.394;10.978;2023-12-20T10:36:01;47.72;;;22.52;;
23384;SDS011;11865;45.394;10.978;2023-12-20T10:38:30;60.85;;;29.02;;
23384;SDS011;11865;45.394;10.978;2023-12-20T10:40:58;51.50;;;29.25;;
23384;SDS011;11865;45.394;10.978;2023-12-20T10:43:26;53.55;;;29.75;;
23384;SDS011;11865;45.394;10.978;2023-12-20T10:45:57;62.17;;;30.15;;
23384;SDS011;11865;45.394;10.978;2023-12-20T10:48:26;53.97;;;28.15;;
23384;SDS011;11865;45.394;10.978;2023-12-20T10:50:57;59.13;;;29.40;;
23384;SDS011;11865;45.394;10.978;2023-12-20T10:53:25;65.13;;;31.17;;
23384;SDS011;11865;45.394;10.978;2023-12-20T10:55:53;63.65;;;29.23;;
23384;SDS011;11865;45.394;10.978;2023-12-20T10:58:24;45.97;;;29.23;;
23384;SDS011;11865;45.394;10.978;2023-12-20T11:00:54;49.58;;;29.50;;
23384;SDS011;11865;45.394;10.978;2023-12-20T11:03:27;47.50;;;28.30;;
23384;SDS011;11865;45.394;10.978;2023-12-20T11:05:59;57.85;;;29.73;;
23384;SDS011;11865;45.394;10.978;2023-12-20T11:08:38;49.78;;;28.70;;
23384;SDS011;11865;45.394;10.978;2023-12-20T11:13:59;47.55;;;28.45;;
23384;SDS011;11865;45.394;10.978;2023-12-20T11:16:33;50.72;;;29.70;;
23384;SDS011;11865;45.394;10.978;2023-12-20T11:19:20;49.15;;;27.85;;
23384;SDS011;11865;45.394;10.978;2023-12-20T11:21:48;48.88;;;29.35;;
23384;SDS011;11865;45.394;10.978;2023-12-20T11:24:21;56.58;;;28.90;;
23384;SDS011;11865;45.394;10.978;2023-12-20T11:26:49;55.63;;;28.75;;
23384;SDS011;11865;45.394;10.978;2023-12-20T11:29:34;51.05;;;28.05;;
23384;SDS011;11865;45.394;10.978;2023-12-20T11:32:03;50.20;;;28.25;;
23384;SDS011;11865;45.394;10.978;2023-12-20T11:34:51;41.78;;;26.17;;
23384;SDS011;11865;45.394;10.978;2023-12-20T11:37:29;40.08;;;23.90;;
23384;SDS011;11865;45.394;10.978;2023-12-20T11:40:01;47.25;;;23.88;;
23384;SDS011;11865;45.394;10.978;2023-12-20T11:42:43;44.13;;;22.73;;
23384;SDS011;11865;45.394;10.978;2023-12-20T11:45:13;44.63;;;22.60;;
23384;SDS011;11865;45.394;10.978;2023-12-20T11:47:43;46.50;;;24.10;;
23384;SDS011;11865;45.394;10.978;2023-12-20T11:50:14;55.60;;;23.85;;
23384;SDS011;11865;45.394;10.978;2023-12-20T11:52:43;46.20;;;22.30;;
23384;SDS011;11865;45.394;10.978;2023-12-20T11:55:10;48.83;;;22.83;;
23384;SDS011;11865;45.394;10.978;2023-12-20T11:57:38;41.55;;;20.80;;
23384;SDS011;11865;45.394;10.978;2023-12-20T12:00:06;44.67;;;21.23;;
23384;SDS011;11865;45.394;10.978;2023-12-20T12:02:40;42.08;;;20.25;;
23384;SDS011;11865;45.394;10.978;2023-12-20T12:05:08;37.47;;;19.75;;
23384;SDS011;11865;45.394;10.978;2023-12-20T12:07:36;36.42;;;20.15;;
23384;SDS011;11865;45.394;10.978;2023-12-20T12:10:04;44.00;;;19.30;;
23384;SDS011;11865;45.394;10.978;2023-12-20T12:12:33;43.25;;;19.15;;
23384;SDS011;11865;45.394;10.978;2023-12-20T12:15:00;48.97;;;20.02;;
23384;SDS011;11865;45.394;10.978;2023-12-20T12:17:30;36.15;;;20.13;;
23384;SDS011;11865;45.394;10.978;2023-12-20T12:20:04;35.10;;;20.60;;
23384;SDS011;11865;45.394;10.978;2023-12-20T12:22:33;56.60;;;22.42;;
23384;SDS011;11865;45.394;10.978;2023-12-20T12:25:09;42.72;;;21.20;;
23384;SDS011;11865;45.394;10.978;2023-12-20T12:27:41;49.45;;;21.08;;
23384;SDS011;11865;45.394;10.978;2023-12-20T12:30:10;47.58;;;22.17;;
23384;SDS011;11865;45.394;10.978;2023-12-20T12:32:40;51.63;;;22.15;;
23384;SDS011;11865;45.394;10.978;2023-12-20T12:35:08;53.85;;;23.02;;
23384;SDS011;11865;45.394;10.978;2023-12-20T12:37:37;50.47;;;22.63;;
23384;SDS011;11865;45.394;10.978;2023-12-20T12:40:13;43.13;;;22.20;;
23384;SDS011;11865;45.394;10.978;2023-12-20T12:42:43;48.67;;;23.60;;
23384;SDS011;11865;45.394;10.978;2023-12-20T12:45:12;41.35;;;24.98;;
23384;SDS011;11865;45.394;10.978;2023-12-20T12:47:39;46.13;;;24.88;;
23384;SDS011;11865;45.394;10.978;2023-12-20T12:50:07;53.85;;;26.38;;
23384;SDS011;11865;45.394;10.978;2023-12-20T12:52:36;54.05;;;26.02;;
23384;SDS011;11865;45.394;10.978;2023-12-20T12:55:04;47.95;;;26.17;;
23384;SDS011;11865;45.394;10.978;2023-12-20T12:57:33;52.28;;;27.77;;
23384;SDS011;11865;45.394;10.978;2023-12-20T13:00:01;53.75;;;28.63;;
23384;SDS011;11865;45.394;10.978;2023-12-20T13:02:30;61.33;;;28.95;;
23384;SDS011;11865;45.394;10.978;2023-12-20T13:04:57;55.90;;;28.73;;
23384;SDS011;11865;45.394;10.978;2023-12-20T13:07:26;57.53;;;27.63;;
23384;SDS011;11865;45.394;10.978;2023-12-20T13:09:54;58.20;;;28.48;;
23384;SDS011;11865;45.394;10.978;2023-12-20T13:12:21;61.80;;;28.13;;
23384;SDS011;11865;45.394;10.978;2023-12-20T13:14:49;52.25;;;30.00;;
23384;SDS011;11865;45.394;10.978;2023-12-20T13:17:17;55.03;;;29.00;;
23384;SDS011;11865;45.394;10.978;2023-12-20T13:19:44;48.80;;;28.70;;
23384;SDS011;11865;45.394;10.978;2023-12-20T13:22:12;49.92;;;28.42;;
23384;SDS011;11865;45.394;10.978;2023-12-20T13:24:39;48.70;;;27.60;;
23384;SDS011;11865;45.394;10.978;2023-12-20T13:27:07;46.22;;;26.65;;
23384;SDS011;11865;45.394;10.978;2023-12-20T13:29:35;59.63;;;28.92;;
23384;SDS011;11865;45.394;10.978;2023-12-20T13:32:05;53.42;;;29.38;;
23384;SDS011;11865;45.394;10.978;2023-12-20T13:34:33;47.17;;;28.98;;
23384;SDS011;11865;45.394;10.978;2023-12-20T13:37:01;52.78;;;29.23;;
23384;SDS011;11865;45.394;10.978;2023-12-20T13:39:29;47.85;;;28.65;;
23384;SDS011;11865;45.394;10.978;2023-12-20T13:41:58;55.22;;;30.20;;
23384;SDS011;11865;45.394;10.978;2023-12-20T13:44:27;52.60;;;29.52;;
23384;SDS011;11865;45.394;10.978;2023-12-20T13:46:55;53.97;;;28.55;;
23384;SDS011;11865;45.394;10.978;2023-12-20T13:49:22;53.25;;;29.15;;
23384;SDS011;11865;45.394;10.978;2023-12-20T13:51:53;48.45;;;27.08;;
23384;SDS011;11865;45.394;10.978;2023-12-20T13:54:22;54.72;;;28.88;;
23384;SDS011;11865;45.394;10.978;2023-12-20T13:56:49;49.13;;;28.88;;
23384;SDS011;11865;45.394;10.978;2023-12-20T13:59:34;55.15;;;29.63;;
23384;SDS011;11865;45.394;10.978;2023-12-20T14:02:02;50.78;;;29.45;;
23384;SDS011;11865;45.394;10.978;2023-12-20T14:04:31;49.83;;;28.80;;
23384;SDS011;11865;45.394;10.978;2023-12-20T14:07:09;53.22;;;29.27;;
23384;SDS011;11865;45.394;10.978;2023-12-20T14:09:39;59.40;;;30.15;;
23384;SDS011;11865;45.394;10.978;2023-12-20T14:12:13;61.58;;;30.52;;
23384;SDS011;11865;45.394;10.978;2023-12-20T14:14:41;55.13;;;29.88;;
23384;SDS011;11865;45.394;10.978;2023-12-20T14:17:09;51.28;;;29.92;;
23384;SDS011;11865;45.394;10.978;2023-12-20T14:19:37;53.28;;;30.25;;
23384;SDS011;11865;45.394;10.978;2023-12-20T14:22:04;50.17;;;28.52;;